Startpagina
METAR-TAF:

METAR-TAF

Vliegvelden :

Repulse Bay, Nunavut, Canada

breedte: 66-32N, lengte: 086-15W, hoogte: 24 m

Actueel weer

Dit bericht is 14 uur en het 39 minuten geleden gemaakt, om 20:00 UTC
Wind 6 kt uit het noordnoordwesten
Temperatuur -15°C
Vochtigheid 60%
Druk 1042 hPa
Zicht: 24.1 km
Onbewolkt

METAR: CYUT 042000Z 34006KT 15SM SKC M15/M21 A3077 RMK LAST STFD OBS/NXT 051400Z SLP425

Tijdstip: 05:39 (10:39 UTC)

Verwachting

Dit bericht is 19 uur en het 0 minuten geleden gemaakt, om 15:39 UTC
Verwachting geldig van 04 om 16 UTC tot 04 om 20 UTC
Wind 12 kt uit het noorden
Zicht: 10 km
Onbewolkt

TAF: CYUT 041539Z 0416/0420 36012KT P6SM SKC RMK NXT FCST WILL BE ISSUED AT 051545Z

Waarnemingen en weersverwachtingen van meer dan 4000 vliegvelden (METAR en TAF).

De beschikbare stations zijn de gele en rode punten op de kaart.

Ga met uw muis naar het station om de naam te zien.

Klik dan om waarnemingen en weersverwachtingen te zien.

kaart wijzigen: klik op de groene knoppen met een zwart kruis om in te zoomen, op de groene knop met een streepje om uit te zoomen of op de groene pijlen voor aangrenzende kaarten.


METAR-TAF: